Time;durP1;ratioP1;P1;durP2;ratioP2;P2;SDS_P1;SDS_P2;PMS_P1;PMS_P2;Temp;Humidity;BMP_temperature;BMP_pressure;BME280_temperature;BME280_humidity;BME280_pressure;Samples;Min_cycle;Max_cycle;Signal;HPM_P1;HPM_P2
2022/08/29 00:02:06;;;;;;;6.88;4.00;;;;;;;16.63;65.77;95848.66;4971479;28;20251;-82
2022/08/29 00:04:31;;;;;;;6.15;4.50;;;;;;;16.63;65.76;95845.25;4957274;28;20188;-82
2022/08/29 00:06:57;;;;;;;5.53;3.97;;;;;;;16.64;65.83;95842.44;4962560;28;20208;-83
2022/08/29 00:09:22;;;;;;;5.38;4.10;;;;;;;16.55;67.02;95850.56;4973891;28;20183;-83
2022/08/29 00:11:47;;;;;;;5.80;3.88;;;;;;;16.47;67.26;95851.44;4971484;28;20555;-82
2022/08/29 00:14:13;;;;;;;6.15;4.43;;;;;;;16.46;67.03;95852.44;4984314;28;20196;-82
2022/08/29 00:16:38;;;;;;;9.63;4.72;;;;;;;16.41;67.30;95852.94;4965551;28;20584;-82
2022/08/29 00:19:04;;;;;;;5.05;4.32;;;;;;;16.37;67.49;95853.47;4962985;28;20188;-82
2022/08/29 00:21:29;;;;;;;4.60;4.03;;;;;;;16.40;67.36;95855.75;4981614;28;20196;-82
2022/08/29 00:23:54;;;;;;;5.00;4.00;;;;;;;16.41;66.42;95858.19;4952704;28;20283;-82
2022/08/29 00:26:19;;;;;;;5.47;3.65;;;;;;;16.38;66.68;95850.69;4971076;28;20700;-82
2022/08/29 00:28:45;;;;;;;8.48;4.47;;;;;;;16.46;65.75;95846.38;4969047;28;20715;-82
2022/08/29 00:31:10;;;;;;;8.52;4.50;;;;;;;16.51;65.88;95851.88;4969058;28;20212;-82
2022/08/29 00:33:36;;;;;;;5.78;4.03;;;;;;;16.54;65.15;95841.06;4974767;28;20195;-81
2022/08/29 00:36:01;;;;;;;14.23;4.65;;;;;;;16.68;65.04;95842.88;4976581;28;20254;-81
2022/08/29 00:38:26;;;;;;;5.07;3.97;;;;;;;16.63;64.88;95850.47;4974252;28;20196;-81
2022/08/29 00:40:53;;;;;;;7.20;4.47;;;;;;;16.63;65.44;95853.91;4968865;28;20196;-81
2022/08/29 00:43:21;;;;;;;7.03;4.32;;;;;;;16.52;65.46;95854.34;4968877;28;20195;-81
2022/08/29 00:46:04;;;;;;;7.70;4.65;;;;;;;16.49;65.99;95848.63;4953212;28;20581;-81
2022/08/29 00:48:30;;;;;;;9.13;4.65;;;;;;;16.43;66.63;95858.00;4959722;28;20219;-81
2022/08/29 00:51:04;;;;;;;6.75;4.13;;;;;;;16.39;66.83;95848.88;4971745;28;20176;-81
2022/08/29 00:53:40;;;;;;;9.93;4.72;;;;;;;16.36;66.85;95849.22;4973156;28;20542;-81
2022/08/29 00:56:07;;;;;;;7.68;4.32;;;;;;;16.33;66.70;95850.38;4974969;28;20630;-82
2022/08/29 00:58:37;;;;;;;6.60;4.72;;;;;;;16.27;67.00;95858.97;4966436;28;20199;-81
2022/08/29 01:01:03;;;;;;;6.18;4.15;;;;;;;16.20;68.21;95854.59;4969934;28;20199;-82
2022/08/29 01:03:31;;;;;;;8.85;4.57;;;;;;;16.18;67.75;95857.41;4974333;28;20196;-82
2022/08/29 01:05:57;;;;;;;6.28;4.30;;;;;;;16.14;68.44;95854.28;4958116;28;20200;-82
2022/08/29 01:08:22;;;;;;;7.93;4.60;;;;;;;16.07;68.29;95860.41;4970746;28;20199;-82
2022/08/29 01:13:35;;;;;;;6.50;4.15;;;;;;;16.10;68.64;95855.63;4969205;28;20707;-82
2022/08/29 01:16:01;;;;;;;4.82;4.15;;;;;;;16.20;68.28;95854.59;4966180;28;20279;-81
2022/08/29 01:18:29;;;;;;;9.73;4.30;;;;;;;16.15;68.39;95850.69;4977570;28;20649;-82
2022/08/29 01:21:29;;;;;;;7.00;4.32;;;;;;;16.13;68.66;95851.84;4972814;28;20200;-82
2022/08/29 01:24:32;;;;;;;7.63;4.85;;;;;;;16.07;68.59;95860.41;4965310;28;20188;-82
2022/08/29 01:26:57;;;;;;;6.85;4.05;;;;;;;16.09;69.17;95854.00;4974043;28;20279;-81
2022/08/29 01:29:23;;;;;;;7.00;4.40;;;;;;;16.10;68.80;95852.22;4958069;28;20686;-80
2022/08/29 01:31:49;;;;;;;8.15;4.85;;;;;;;16.10;68.87;95853.03;4961471;28;20191;-81
2022/08/29 01:34:15;;;;;;;6.20;4.43;;;;;;;16.14;68.54;95854.28;4956160;28;20278;-82
2022/08/29 01:36:49;;;;;;;7.25;4.43;;;;;;;16.09;68.70;95854.00;4960885;28;20204;-82
2022/08/29 01:39:16;;;;;;;7.43;4.53;;;;;;;16.03;68.73;95849.47;4959196;28;20192;-82
2022/08/29 01:41:42;;;;;;;11.77;4.43;;;;;;;15.99;68.97;95855.19;4951770;28;20728;-81
2022/08/29 01:44:11;;;;;;;7.72;4.43;;;;;;;15.96;69.27;95853.75;4983662;28;20183;-82
2022/08/29 01:46:37;;;;;;;11.18;4.47;;;;;;;15.92;69.32;95862.16;4977502;28;20205;-82
2022/08/29 01:49:04;;;;;;;6.82;4.30;;;;;;;15.95;68.90;95862.59;4980074;28;20179;-82
2022/08/29 01:51:30;;;;;;;6.72;4.50;;;;;;;15.96;69.23;95852.94;4959273;28;20184;-82
2022/08/29 01:53:59;;;;;;;7.20;4.55;;;;;;;16.00;68.56;95860.28;4974269;28;20234;-82
2022/08/29 01:56:27;;;;;;;8.13;4.38;;;;;;;16.02;68.47;95853.06;4960435;28;20212;-82
2022/08/29 01:58:53;;;;;;;9.73;4.82;;;;;;;15.99;68.71;95856.03;4953957;28;20196;-82
2022/08/29 02:01:21;;;;;;;7.85;4.72;;;;;;;15.90;70.23;95862.28;4974838;28;20192;-82
2022/08/29 02:03:47;;;;;;;7.40;4.53;;;;;;;15.84;70.26;95858.59;4974452;28;20183;-82
2022/08/29 02:06:12;;;;;;;9.68;4.97;;;;;;;15.77;70.94;95855.00;4959844;28;20215;-82
2022/08/29 02:08:39;;;;;;;6.85;4.53;;;;;;;15.67;71.86;95859.66;4958020;28;20400;-83
2022/08/29 02:11:08;;;;;;;6.53;5.00;;;;;;;15.59;72.63;95857.84;4963276;28;20648;-83
2022/08/29 02:13:35;;;;;;;5.65;4.90;;;;;;;15.50;73.35;95855.44;4955204;28;20200;-82
2022/08/29 02:16:00;;;;;;;10.73;5.25;;;;;;;15.42;74.48;95861.53;4968393;28;20291;-82
2022/08/29 02:18:26;;;;;;;6.65;5.05;;;;;;;15.35;74.74;95859.75;4977537;28;20747;-82
2022/08/29 02:20:51;;;;;;;10.13;5.60;;;;;;;15.26;75.72;95866.81;4973716;28;20249;-82
2022/08/29 02:23:17;;;;;;;6.47;4.70;;;;;;;15.21;75.77;95864.72;4978351;28;20184;-82
2022/08/29 02:25:42;;;;;;;7.65;5.20;;;;;;;15.15;76.24;95856.72;4969588;28;20236;-83
2022/08/29 02:28:10;;;;;;;6.93;4.90;;;;;;;15.09;76.42;95857.38;4973472;28;20181;-83
2022/08/29 02:30:36;;;;;;;7.72;5.40;;;;;;;15.05;76.88;95853.47;4949059;28;20219;-82
2022/08/29 02:33:01;;;;;;;7.88;5.75;;;;;;;15.04;77.02;95857.91;4962762;28;20214;-82
2022/08/29 02:35:27;;;;;;;8.75;4.95;;;;;;;14.98;77.57;95853.31;4962114;28;20204;-83
2022/08/29 02:37:52;;;;;;;6.72;5.10;;;;;;;14.97;77.39;95849.91;4973183;28;20556;-83
2022/08/29 02:40:18;;;;;;;8.35;5.22;;;;;;;14.93;77.30;95864.31;4969054;28;20188;-82
2022/08/29 02:42:46;;;;;;;6.78;4.78;;;;;;;14.96;77.25;95850.88;4977633;28;20673;-83
2022/08/29 02:45:11;;;;;;;7.97;5.78;;;;;;;14.89;77.93;95855.16;4961430;28;20192;-82
2022/08/29 02:47:36;;;;;;;9.50;5.47;;;;;;;14.86;78.12;95852.06;4973949;28;20184;-83
2022/08/29 02:50:08;;;;;;;9.98;5.28;;;;;;;14.79;79.15;95856.31;4961985;28;20242;-82
2022/08/29 02:52:33;;;;;;;9.40;5.40;;;;;;;14.78;79.53;95858.13;4962107;28;20184;-82
2022/08/29 02:54:59;;;;;;;8.07;5.20;;;;;;;14.81;79.60;95849.94;4968551;28;20282;-82
2022/08/29 02:57:24;;;;;;;6.38;5.28;;;;;;;14.80;79.81;95850.09;4965150;28;20187;-82
2022/08/29 02:59:49;;;;;;;7.55;6.18;;;;;;;14.76;79.67;95847.00;4972781;28;20193;-82
2022/08/29 03:02:14;;;;;;;6.13;5.18;;;;;;;14.76;79.52;95844.41;4978824;28;20270;-82
2022/08/29 03:04:40;;;;;;;7.32;5.85;;;;;;;14.74;79.71;95852.38;4962593;28;20196;-82
2022/08/29 03:07:05;;;;;;;8.70;6.03;;;;;;;14.73;79.33;95855.16;4972465;28;20307;-82
2022/08/29 03:09:30;;;;;;;9.13;5.60;;;;;;;14.71;79.32;95857.94;4958025;28;20189;-82
2022/08/29 03:11:56;;;;;;;8.90;5.50;;;;;;;14.71;79.49;95855.34;4972841;28;20183;-82
2022/08/29 03:14:22;;;;;;;9.02;5.95;;;;;;;14.73;79.47;95850.75;4975654;28;20215;-82
2022/08/29 03:16:48;;;;;;;8.38;5.82;;;;;;;14.63;80.25;95851.91;4977214;28;20215;-82
2022/08/29 03:19:13;;;;;;;8.25;5.28;;;;;;;14.66;79.97;95856.81;4974514;28;20217;-82
2022/08/29 03:21:38;;;;;;;6.88;5.15;;;;;;;14.68;79.98;95853.06;4970950;28;20649;-82
2022/08/29 03:24:04;;;;;;;9.90;6.70;;;;;;;14.63;79.50;95844.88;4964598;28;20208;-83
2022/08/29 03:26:29;;;;;;;7.00;5.78;;;;;;;14.57;80.61;95845.53;4981800;28;20227;-82
2022/08/29 03:28:54;;;;;;;10.27;5.65;;;;;;;14.52;81.15;95844.41;4959253;28;20278;-82
2022/08/29 03:31:20;;;;;;;7.88;5.35;;;;;;;14.45;81.66;95849.47;4976646;28;20664;-83
2022/08/29 03:33:45;;;;;;;7.95;5.53;;;;;;;14.45;81.13;95836.41;4961839;28;20238;-82
2022/08/29 03:36:11;;;;;;;8.32;6.03;;;;;;;14.33;81.82;95843.75;4959747;28;20205;-83
2022/08/29 03:38:39;;;;;;;10.00;5.18;;;;;;;14.37;81.04;95845.03;4968546;28;20212;-82
2022/08/29 03:41:08;;;;;;;8.15;5.78;;;;;;;14.35;81.81;95847.00;4964895;28;20212;-82
2022/08/29 03:43:33;;;;;;;8.20;5.55;;;;;;;14.33;82.32;95843.75;4959878;28;20207;-82
2022/08/29 03:45:59;;;;;;;7.22;6.47;;;;;;;14.28;82.62;95845.19;4975947;28;20696;-82
2022/08/29 03:48:24;;;;;;;9.50;5.53;;;;;;;14.29;82.49;95842.41;4960191;28;20655;-82
2022/08/29 03:50:49;;;;;;;6.68;5.28;;;;;;;14.25;83.05;95840.31;4969671;28;20192;-82
2022/08/29 03:53:14;;;;;;;7.35;5.95;;;;;;;14.24;83.03;95841.31;4985837;28;20231;-82
2022/08/29 03:55:40;;;;;;;7.30;5.55;;;;;;;14.20;83.21;95838.19;4974624;28;20216;-82
2022/08/29 03:58:05;;;;;;;7.70;6.25;;;;;;;14.26;82.58;95842.75;4973345;28;20224;-82
2022/08/29 04:00:31;;;;;;;9.75;6.32;;;;;;;14.23;82.93;95850.94;4961158;28;20196;-82
2022/08/29 04:02:57;;;;;;;11.23;6.88;;;;;;;14.20;82.94;95846.00;4960405;28;20197;-82
2022/08/29 04:05:23;;;;;;;9.95;6.38;;;;;;;14.11;83.52;95849.59;4959031;28;20696;-82
2022/08/29 04:07:51;;;;;;;7.53;5.88;;;;;;;14.10;84.35;95848.78;4961892;28;20242;-81
2022/08/29 04:10:31;;;;;;;7.95;5.80;;;;;;;14.08;84.40;95845.53;4970120;28;20188;-81
2022/08/29 04:12:57;;;;;;;9.52;5.82;;;;;;;14.10;83.75;95847.97;4979682;28;20847;-81
2022/08/29 04:15:23;;;;;;;11.85;6.55;;;;;;;14.13;83.21;95858.94;4954996;28;20224;-81
2022/08/29 04:17:52;;;;;;;9.52;7.00;;;;;;;14.11;83.32;95852.22;4970783;28;20251;-83
2022/08/29 04:20:18;;;;;;;9.18;6.10;;;;;;;14.06;83.67;95846.66;4951579;28;20504;-82
2022/08/29 04:22:44;;;;;;;10.32;6.32;;;;;;;14.06;83.61;95846.66;4947818;28;20279;-83
2022/08/29 04:25:11;;;;;;;6.97;6.20;;;;;;;14.06;83.62;95854.50;4957761;28;20530;-82
2022/08/29 04:27:36;;;;;;;7.55;6.10;;;;;;;14.11;83.55;95852.22;4973800;28;20191;-82
2022/08/29 04:30:05;;;;;;;8.70;6.30;;;;;;;14.09;83.13;95856.78;4958830;28;20211;-82
2022/08/29 04:32:30;;;;;;;10.88;6.47;;;;;;;14.06;83.74;95859.72;4970992;28;20686;-83
2022/08/29 04:34:56;;;;;;;9.13;6.60;;;;;;;14.02;84.34;95854.00;4956837;28;20198;-82
2022/08/29 04:37:22;;;;;;;13.95;5.82;;;;;;;14.06;83.77;95851.91;4964260;28;20592;-83
2022/08/29 04:39:47;;;;;;;10.80;6.32;;;;;;;13.96;84.31;95854.66;4961454;28;20193;-82
2022/08/29 04:42:13;;;;;;;6.50;5.72;;;;;;;14.01;83.79;95859.38;4971756;28;20231;-83
2022/08/29 04:44:38;;;;;;;7.97;5.65;;;;;;;14.08;83.76;95860.38;4971318;28;20196;-83
2022/08/29 04:47:04;;;;;;;10.52;6.97;;;;;;;14.05;84.14;95858.09;4958765;28;20208;-83
2022/08/29 04:49:30;;;;;;;8.90;5.97;;;;;;;14.06;84.01;95859.72;4962470;28;20189;-83
2022/08/29 04:51:55;;;;;;;8.43;6.20;;;;;;;14.05;84.57;95851.09;4966914;28;20198;-82
2022/08/29 04:54:20;;;;;;;11.20;6.35;;;;;;;14.11;83.77;95862.66;4986176;28;20707;-82
2022/08/29 04:56:45;;;;;;;10.57;6.45;;;;;;;14.17;83.84;95855.00;4959089;28;20211;-81
2022/08/29 04:59:11;;;;;;;9.45;5.90;;;;;;;14.15;82.46;95862.19;4960810;28;20199;-80
2022/08/29 05:01:36;;;;;;;8.65;5.82;;;;;;;14.36;81.64;95868.72;4966911;28;20227;-80
2022/08/29 05:04:02;;;;;;;10.05;5.88;;;;;;;14.49;81.01;95869.09;4956869;28;20726;-79
2022/08/29 05:06:27;;;;;;;7.93;5.13;;;;;;;14.61;79.95;95869.56;4958084;28;20235;-79
2022/08/29 05:08:53;;;;;;;9.38;5.50;;;;;;;14.68;79.57;95871.38;4968829;28;20637;-82
2022/08/29 05:11:19;;;;;;;8.73;4.97;;;;;;;14.76;79.19;95872.34;4958479;28;20216;-82
2022/08/29 05:13:46;;;;;;;8.70;5.15;;;;;;;14.87;77.39;95878.03;4956430;28;20247;-81
2022/08/29 05:16:13;;;;;;;9.88;4.93;;;;;;;14.97;76.03;95881.28;4969497;28;20207;-81
2022/08/29 05:18:40;;;;;;;8.13;4.32;;;;;;;15.08;75.87;95885.34;4964947;28;20226;-80
2022/08/29 05:21:05;;;;;;;9.63;4.38;;;;;;;15.12;74.76;95886.66;4961195;28;20281;-80
2022/08/29 05:23:31;;;;;;;7.72;4.10;;;;;;;15.28;74.31;95894.47;4955345;28;20199;-81
2022/08/29 05:25:58;;;;;;;6.65;4.00;;;;;;;15.41;73.97;95891.31;4969872;28;20571;-80
2022/08/29 05:28:25;;;;;;;6.22;3.95;;;;;;;15.46;72.38;95883.78;4956085;28;20187;-81
2022/08/29 05:30:50;;;;;;;8.80;4.20;;;;;;;15.59;71.45;95886.66;4953286;28;20219;-80
2022/08/29 05:33:16;;;;;;;5.53;3.88;;;;;;;15.68;71.76;95886.66;4966255;28;20278;-81
2022/08/29 05:35:41;;;;;;;6.85;4.10;;;;;;;15.73;72.40;95887.78;4963567;28;20208;-80
2022/08/29 05:38:07;;;;;;;9.38;5.32;;;;;;;15.76;73.37;95886.63;4966521;28;20224;-80
2022/08/29 05:40:32;;;;;;;5.20;4.13;;;;;;;15.88;72.55;95890.47;4958999;28;20267;-79
2022/08/29 05:42:58;;;;;;;7.85;4.55;;;;;;;15.89;72.41;95888.66;4955851;28;20305;-79
2022/08/29 05:45:23;;;;;;;6.80;4.35;;;;;;;16.00;72.42;95893.53;4963104;28;20220;-81
2022/08/29 05:47:49;;;;;;;10.05;4.68;;;;;;;16.05;72.36;95886.78;4971615;28;20180;-81
2022/08/29 05:50:15;;;;;;;10.07;4.65;;;;;;;16.18;72.04;95898.50;4965578;28;20188;-80
2022/08/29 05:52:41;;;;;;;7.45;5.03;;;;;;;16.27;71.61;95892.22;4948445;28;20188;-81
2022/08/29 05:55:07;;;;;;;7.80;5.00;;;;;;;16.30;71.83;95897.09;4977309;28;20176;-81
2022/08/29 05:57:32;;;;;;;10.23;6.10;;;;;;;16.32;71.98;95901.16;4953836;28;20193;-81
2022/08/29 05:59:57;;;;;;;8.63;5.25;;;;;;;16.45;71.05;95897.16;4968548;28;20254;-80
2022/08/29 06:02:23;;;;;;;9.20;5.22;;;;;;;16.51;71.30;95894.63;4965799;28;20199;-80
2022/08/29 06:04:49;;;;;;;8.25;4.70;;;;;;;16.68;69.73;95895.31;4956151;28;20275;-80
2022/08/29 06:07:15;;;;;;;6.82;4.40;;;;;;;16.87;68.27;95907.16;4956953;28;20199;-80
2022/08/29 06:09:41;;;;;;;6.35;4.70;;;;;;;16.81;68.70;95905.25;4957511;28;20183;-81
2022/08/29 06:12:07;;;;;;;10.90;5.05;;;;;;;16.90;68.93;95915.50;4948135;28;20726;-80
2022/08/29 06:14:32;;;;;;;7.70;5.15;;;;;;;17.04;68.21;95906.00;4955252;28;20233;-81
2022/08/29 06:16:58;;;;;;;6.40;4.50;;;;;;;17.12;67.53;95911.19;4950542;28;20208;-80
2022/08/29 06:19:24;;;;;;;12.43;4.72;;;;;;;17.09;67.60;95911.56;4956045;28;20191;-80
2022/08/29 06:21:49;;;;;;;9.27;4.35;;;;;;;17.16;67.67;95915.09;4959970;28;20593;-81
2022/08/29 06:24:15;;;;;;;8.88;4.90;;;;;;;17.20;67.83;95910.28;4960827;28;20596;-81
2022/08/29 06:26:42;;;;;;;10.15;4.68;;;;;;;17.23;67.67;95905.50;4955299;28;20208;-80
2022/08/29 06:29:11;;;;;;;9.00;4.78;;;;;;;17.35;67.85;95916.38;4968320;28;20192;-80
2022/08/29 06:31:36;;;;;;;7.65;4.95;;;;;;;17.44;66.21;95917.09;4965323;28;20192;-80
2022/08/29 06:34:04;;;;;;;8.07;4.63;;;;;;;17.45;66.40;95916.09;4962370;28;20544;-80
2022/08/29 06:36:33;;;;;;;6.13;3.78;;;;;;;17.55;66.35;95921.91;4953773;28;20248;-80
2022/08/29 06:39:01;;;;;;;6.75;3.97;;;;;;;17.60;65.15;95921.38;4989844;28;20633;-78
2022/08/29 06:41:26;;;;;;;7.53;4.68;;;;;;;17.76;64.92;95924.66;4966830;28;20204;-79
2022/08/29 06:43:53;;;;;;;8.93;4.50;;;;;;;17.79;64.89;95923.47;4958861;28;20200;-81
2022/08/29 06:46:21;;;;;;;9.02;4.53;;;;;;;17.76;65.72;95922.03;4947595;28;20304;-81
2022/08/29 06:48:47;;;;;;;8.70;5.18;;;;;;;17.94;65.47;95920.81;4957219;28;20180;-81
2022/08/29 06:51:12;;;;;;;9.85;4.75;;;;;;;18.04;65.57;95916.09;4965732;28;20556;-81
2022/08/29 06:53:38;;;;;;;8.13;4.65;;;;;;;18.14;65.64;95927.09;4960677;28;20696;-80
2022/08/29 06:56:04;;;;;;;10.57;4.45;;;;;;;18.20;65.73;95928.16;4955152;28;20215;-81
2022/08/29 06:58:29;;;;;;;7.53;4.82;;;;;;;18.18;66.87;95935.44;4963267;28;20218;-80
2022/08/29 07:00:55;;;;;;;6.40;4.90;;;;;;;18.38;65.40;95942.53;4984040;28;20734;-81
2022/08/29 07:03:21;;;;;;;8.77;5.28;;;;;;;18.46;65.32;95938.16;4955772;28;20244;-81
2022/08/29 07:05:51;;;;;;;8.23;5.43;;;;;;;18.47;66.30;95947.69;4961204;28;20209;-80
2022/08/29 07:08:16;;;;;;;10.00;5.55;;;;;;;18.56;66.04;95934.22;4965523;28;20672;-80
2022/08/29 07:10:43;;;;;;;8.70;5.45;;;;;;;18.71;66.16;95941.25;4969615;28;20223;-81
2022/08/29 07:13:09;;;;;;;9.80;5.65;;;;;;;18.75;66.11;95942.53;4968140;28;20195;-81
2022/08/29 07:15:34;;;;;;;8.80;5.75;;;;;;;18.85;66.30;95943.03;4970625;28;20204;-79
2022/08/29 07:17:59;;;;;;;10.13;6.13;;;;;;;18.90;66.76;95940.63;4969345;28;20673;-81
2022/08/29 07:20:25;;;;;;;11.55;6.05;;;;;;;19.02;65.51;95946.19;4957932;28;20242;-81
2022/08/29 07:22:51;;;;;;;9.63;6.20;;;;;;;19.10;66.36;95957.41;4973439;28;20207;-80
2022/08/29 07:25:17;;;;;;;9.63;6.75;;;;;;;19.25;66.00;95950.22;4972873;28;20998;-80
2022/08/29 07:27:42;;;;;;;7.90;5.30;;;;;;;19.48;65.21;95952.59;4970301;28;20223;-80
2022/08/29 07:30:08;;;;;;;6.05;4.57;;;;;;;19.49;64.25;95956.88;4968547;28;20220;-80
2022/08/29 07:32:33;;;;;;;8.27;6.45;;;;;;;19.67;64.31;95963.50;4958489;28;20268;-80
2022/08/29 07:34:59;;;;;;;9.55;5.63;;;;;;;19.61;64.50;95959.78;4956049;28;20192;-80
2022/08/29 07:37:24;;;;;;;6.47;5.68;;;;;;;19.79;64.84;95962.75;4956578;28;20180;-81
2022/08/29 07:39:49;;;;;;;9.68;5.78;;;;;;;19.90;63.16;95964.03;4958074;28;20194;-81
2022/08/29 07:42:14;;;;;;;6.53;4.90;;;;;;;20.01;63.59;95960.81;4958279;28;20224;-81
2022/08/29 07:44:40;;;;;;;5.85;4.40;;;;;;;20.22;62.87;95959.88;4982875;28;20180;-81
2022/08/29 07:47:05;;;;;;;5.55;4.70;;;;;;;20.11;61.43;95957.00;4957643;28;20286;-80
2022/08/29 07:49:32;;;;;;;6.95;4.75;;;;;;;20.15;62.36;95959.06;4969769;28;20184;-80
2022/08/29 07:51:58;;;;;;;5.75;4.70;;;;;;;20.11;62.34;95964.91;4965610;28;20187;-81
2022/08/29 07:54:23;;;;;;;6.78;4.85;;;;;;;19.90;62.60;95964.03;4971920;28;20637;-80
2022/08/29 07:56:50;;;;;;;7.85;5.25;;;;;;;19.98;62.63;95963.88;4958136;28;20578;-81
2022/08/29 07:59:17;;;;;;;7.63;5.38;;;;;;;20.14;61.65;95965.34;4965915;28;20184;-81
2022/08/29 08:01:42;;;;;;;8.43;5.53;;;;;;;20.16;61.36;95962.53;4957743;28;20208;-82
2022/08/29 08:04:09;;;;;;;9.20;5.00;;;;;;;20.08;62.74;95974.84;4958767;28;20664;-81
2022/08/29 08:06:35;;;;;;;7.00;5.28;;;;;;;20.17;62.43;95958.88;4945631;28;20270;-80
2022/08/29 08:09:01;;;;;;;6.38;4.85;;;;;;;20.24;62.54;95967.63;4952637;28;20276;-81
2022/08/29 08:11:27;;;;;;;7.35;5.18;;;;;;;20.37;61.60;95962.38;4957714;28;20181;-79
2022/08/29 08:13:53;;;;;;;9.63;5.90;;;;;;;20.44;61.38;95965.88;4957090;28;20253;-81
2022/08/29 08:16:20;;;;;;;8.60;5.55;;;;;;;20.35;62.11;95967.88;4963961;28;20214;-80
2022/08/29 08:18:45;;;;;;;6.38;5.32;;;;;;;20.44;60.96;95960.63;4966787;28;20184;-80
2022/08/29 08:21:11;;;;;;;9.57;5.82;;;;;;;20.53;61.01;95975.25;4956681;28;20204;-82
2022/08/29 08:23:37;;;;;;;10.43;6.13;;;;;;;20.50;61.81;95962.47;4948744;28;20255;-82
2022/08/29 08:26:03;;;;;;;6.63;5.28;;;;;;;20.81;60.16;95967.19;4952654;28;20273;-81
2022/08/29 08:28:29;;;;;;;7.90;5.18;;;;;;;21.11;59.53;95962.31;4967238;28;20280;-80
2022/08/29 08:30:55;;;;;;;11.57;6.03;;;;;;;21.15;59.52;95968.84;4956919;28;20198;-81
2022/08/29 08:33:20;;;;;;;9.27;5.72;;;;;;;21.26;58.58;95970.03;4972153;28;20198;-80
2022/08/29 08:35:46;;;;;;;8.00;6.03;;;;;;;21.17;59.43;95971.28;4955469;28;20243;-80
2022/08/29 08:38:11;;;;;;;8.15;5.47;;;;;;;21.64;59.21;95970.22;4965025;28;20215;-80
2022/08/29 08:40:49;;;;;;;9.30;5.70;;;;;;;21.75;59.02;95971.44;4956037;28;20224;-84
2022/08/29 08:43:19;;;;;;;9.73;6.25;;;;;;;21.87;57.25;95976.91;4960620;28;20195;-83
2022/08/29 08:46:05;;;;;;;7.40;5.78;;;;;;;21.80;58.58;95976.09;4950841;28;20234;-87
2022/08/29 09:06:04;;;;;;;12.18;5.55;;;;;;;22.50;56.53;95988.50;6021891;23;20178;-81
2022/08/29 09:57:12;;;;;;;8.77;4.72;;;;;;;23.84;47.70;95983.88;5589105;22;20240;-77
2022/08/29 09:59:43;;;;;;;7.35;4.53;;;;;;;23.80;47.32;95983.50;4934958;28;20742;-78
2022/08/29 10:02:21;;;;;;;9.43;4.65;;;;;;;24.01;47.44;95990.22;4922761;28;20216;-78
2022/08/29 10:05:00;;;;;;;6.78;4.80;;;;;;;24.12;47.81;95986.84;4956790;28;20608;-81
2022/08/29 10:07:32;;;;;;;7.78;4.25;;;;;;;24.12;46.01;95986.84;4918784;29;20189;-79
2022/08/29 10:10:14;;;;;;;10.02;6.03;;;;;;;23.80;48.46;95994.13;4927536;29;20704;-78
2022/08/29 10:12:50;;;;;;;9.23;5.60;;;;;;;23.72;50.11;95989.91;4919341;29;20250;-79
2022/08/29 10:15:22;;;;;;;7.40;6.15;;;;;;;23.42;51.38;95992.41;4915990;29;20209;-79
2022/08/29 10:20:48;;;;;;;10.20;5.28;;;;;;;23.38;50.55;95985.09;4927852;29;20241;-80
2022/08/29 10:23:36;;;;;;;8.65;5.50;;;;;;;23.13;51.38;95983.25;4942364;29;20260;-79
2022/08/29 10:26:05;;;;;;;6.70;5.22;;;;;;;23.45;52.31;95991.97;4917753;29;20217;-79
2022/08/29 10:28:41;;;;;;;10.30;5.95;;;;;;;23.76;50.42;95982.31;4926273;29;20593;-79
2022/08/29 10:31:07;;;;;;;6.60;5.00;;;;;;;23.94;49.68;95985.00;4916866;29;20213;-80
2022/08/29 10:33:32;;;;;;;5.53;5.03;;;;;;;24.08;50.22;95984.84;4933813;29;20284;-80
2022/08/29 10:36:18;;;;;;;6.33;4.80;;;;;;;23.96;48.43;95980.28;4934338;29;20209;-79
2022/08/29 10:38:52;;;;;;;7.07;5.07;;;;;;;23.82;48.74;95986.75;4931947;29;20444;-80
2022/08/29 10:41:29;;;;;;;7.63;4.60;;;;;;;23.77;50.77;95981.31;4933372;29;20205;-79
2022/08/29 10:44:09;;;;;;;6.93;4.70;;;;;;;24.13;48.54;95983.16;4952149;29;20197;-78
2022/08/29 10:46:46;;;;;;;7.22;4.90;;;;;;;24.39;48.92;95976.75;4934797;29;20201;-78
2022/08/29 10:49:23;;;;;;;7.38;5.00;;;;;;;24.24;48.46;95984.25;4939764;29;20181;-80
2022/08/29 10:52:01;;;;;;;6.80;4.97;;;;;;;24.28;47.17;95986.22;4946502;28;20217;-78
2022/08/29 10:54:41;;;;;;;6.07;4.55;;;;;;;24.66;47.04;95981.72;4938437;29;20194;-79
2022/08/29 10:57:08;;;;;;;8.80;4.65;;;;;;;24.88;48.16;95985.47;4965914;28;20209;-79
2022/08/29 10:59:55;;;;;;;5.32;4.28;;;;;;;24.87;45.57;95973.22;4926590;29;20202;-79
2022/08/29 11:02:34;;;;;;;4.50;3.67;;;;;;;24.97;46.45;95973.50;4934988;29;20224;-80
2022/08/29 11:05:05;;;;;;;6.32;4.68;;;;;;;24.88;44.87;95972.19;4931904;29;20249;-79
2022/08/29 11:07:35;;;;;;;8.88;4.80;;;;;;;24.32;46.19;95976.03;4933190;29;20276;-80
2022/08/29 11:10:09;;;;;;;5.60;4.25;;;;;;;24.15;46.40;95970.47;4922227;29;20201;-79
2022/08/29 11:12:56;;;;;;;5.20;4.47;;;;;;;24.40;47.56;95973.06;4937406;29;20252;-80
2022/08/29 11:15:33;;;;;;;7.88;6.15;;;;;;;24.32;46.39;95970.72;4914671;29;20202;-80
2022/08/29 11:18:28;;;;;;;5.63;4.60;;;;;;;24.27;47.62;95967.88;4922316;29;20657;-79
2022/08/29 11:20:57;;;;;;;7.57;4.63;;;;;;;24.62;45.98;95970.72;4912625;29;20202;-80
2022/08/29 11:23:37;;;;;;;8.07;4.60;;;;;;;24.41;45.03;95971.22;4918899;29;20597;-80
2022/08/29 11:26:21;;;;;;;6.35;4.45;;;;;;;24.49;46.18;95966.41;4930162;29;20300;-80
2022/08/29 11:28:56;;;;;;;5.25;4.72;;;;;;;24.70;45.26;95972.25;4928847;29;20182;-79
2022/08/29 11:31:49;;;;;;;5.28;4.65;;;;;;;24.94;44.61;95971.28;4921651;29;20195;-80
2022/08/29 11:34:42;;;;;;;5.47;4.20;;;;;;;25.07;44.76;95957.81;4928778;29;20208;-80
2022/08/29 11:37:44;;;;;;;6.80;4.60;;;;;;;25.06;44.88;95952.75;4949423;28;20625;-80
2022/08/29 11:40:24;;;;;;;5.65;4.25;;;;;;;25.08;43.51;95953.31;4947150;29;20185;-80
2022/08/29 11:42:50;;;;;;;5.40;4.03;;;;;;;24.40;45.08;95962.44;4928050;29;20225;-79
2022/08/29 11:45:23;;;;;;;8.60;5.50;;;;;;;24.39;44.86;95957.38;4919313;29;20694;-79
2022/08/29 11:48:17;;;;;;;6.82;5.18;;;;;;;24.11;44.96;95955.22;4918995;29;20202;-80
2022/08/29 11:50:42;;;;;;;5.93;3.90;;;;;;;24.42;44.76;95951.59;4918407;29;20203;-80
2022/08/29 11:53:13;;;;;;;6.75;4.20;;;;;;;24.41;45.87;95964.06;4913994;29;20186;-80
2022/08/29 11:55:43;;;;;;;6.30;4.25;;;;;;;24.70;45.45;95958.97;4911339;29;20264;-80
2022/08/29 11:58:14;;;;;;;5.72;4.70;;;;;;;24.79;45.80;95955.78;4935011;29;20280;-80
2022/08/29 12:00:42;;;;;;;8.57;4.75;;;;;;;24.64;44.13;95951.91;4942050;28;20208;-81
2022/08/29 12:03:33;;;;;;;6.57;4.50;;;;;;;24.80;44.40;95953.94;4920704;29;20332;-80
2022/08/29 12:06:13;;;;;;;8.82;4.28;;;;;;;24.56;45.51;95945.91;4946007;29;20248;-80
2022/08/29 12:08:49;;;;;;;8.63;4.72;;;;;;;24.74;44.98;95953.00;4930529;29;20177;-81
2022/08/29 12:11:14;;;;;;;6.35;4.80;;;;;;;24.79;44.75;95945.16;4929977;29;20618;-80
2022/08/29 12:13:46;;;;;;;5.30;4.80;;;;;;;24.84;44.92;95947.13;4920260;29;20185;-80
2022/08/29 12:16:15;;;;;;;8.10;4.68;;;;;;;25.18;43.99;95932.34;4944034;29;20293;-80
2022/08/29 12:18:43;;;;;;;5.85;4.63;;;;;;;24.86;43.66;95937.91;4934580;29;20185;-80
2022/08/29 12:21:30;;;;;;;8.07;4.63;;;;;;;24.95;44.45;95929.59;4932644;29;20248;-80
2022/08/29 12:23:55;;;;;;;7.05;4.22;;;;;;;24.95;45.07;95933.06;4947500;29;20221;-80
2022/08/29 12:26:42;;;;;;;5.43;4.30;;;;;;;25.36;44.54;95948.19;4931764;29;20240;-81
2022/08/29 12:29:16;;;;;;;7.13;4.43;;;;;;;25.27;43.45;95933.63;4926164;29;20189;-81
2022/08/29 12:31:57;;;;;;;7.32;4.47;;;;;;;25.26;43.31;95941.78;4935293;29;20228;-81
2022/08/29 12:34:35;;;;;;;8.35;4.85;;;;;;;25.49;43.26;95939.16;4932156;29;20733;-81
2022/08/29 12:37:21;;;;;;;6.25;4.93;;;;;;;25.18;42.37;95937.66;4911458;29;20205;-80
2022/08/29 12:40:28;;;;;;;7.45;5.00;;;;;;;25.35;42.62;95935.91;4931256;29;20189;-80
2022/08/29 12:43:11;;;;;;;6.25;4.85;;;;;;;25.52;41.98;95930.69;4929454;29;20224;-80
2022/08/29 12:45:37;;;;;;;6.50;4.80;;;;;;;25.43;42.31;95930.25;4925236;29;20736;-80
2022/08/29 12:48:10;;;;;;;7.22;5.13;;;;;;;25.40;41.65;95930.72;4924398;29;20209;-80
2022/08/29 12:50:42;;;;;;;7.82;5.00;;;;;;;25.16;42.49;95931.72;4928406;29;20185;-80
2022/08/29 12:53:23;;;;;;;5.55;4.50;;;;;;;25.55;42.83;95922.28;4929786;29;20204;-81